Аэропорт
Международный аэропорт Кимхэ (RKPK)

 RKPK / PUS

Korea, Republic of
KR-26
Пусан
 35.17950, 128.93800  / 6 ft

 RKPK 182208Z 32004KT 4800 BR FEW001 FEW010 SCT200 16/14 Q1017
 TAF RKPK 181700Z 1818/1924 33006KT 4800 BR SCT030 TX28/1906Z TN18/1921Z BECMG 1823/1900 9999 NSW BECMG 1902/1903 21008KT BECMG 1915/1916 33006KT

2020 © VATRUS division (Privacy Policy)